Mpi Rosinante — 2CPD4 — position and weather

sailwx.info

Track history (hours):
 
Tides and Currents Weather Stations Pressure Air Temp Water Temp Dewpoint Dewpoint Depression Visibility Wind Speed Wind Dir Waves Ship Positions

Mpi Rosinante

Last reported at 2015-Aug-24 12:15 UTC. Time now 2015-Aug-31 02:36 UTC.
Position N 51°14' E 002°56'.

Length 15 m; draft 1.1 m.

Type: Ship. MMSI: 235074636.

Date/timePositionNaut miles runAvg speedWind from/ knotsBaromVisibWave heightAir tempDewpointWater temp
2015-Aug-24 12:15N 51°14' E 002°56'0 0.0
2015-Aug-24 11:33N 51°14' E 002°56'0 0.0
2015-Aug-24 10:33N 51°14' E 002°56'0 0.3
2015-Aug-24 09:33N 51°14' E 002°56'3 2.9
2015-Aug-24 08:34N 51°17' E 002°55'1 0.8
2015-Aug-24 07:33N 51°16' E 002°55'3 0.1
2015-Aug-23 07:12N 51°14' E 002°56'0 0.0
2015-Aug-22 16:33N 51°14' E 002°56'20 2.5
2015-Aug-22 08:19N 51°34' E 003°01'4 5.1
2015-Aug-22 07:32N 51°33' E 002°55'1313.1
2015-Aug-22 06:34N 51°20' E 002°54'6 6.5
2015-Aug-22 05:33N 51°14' E 002°56'0 0.0
2015-Aug-20 15:25N 51°14' E 002°56'0 0.0
2015-Aug-20 14:34N 51°14' E 002°56'0 0.0
2015-Aug-20 13:34N 51°14' E 002°56'0 0.0
2015-Aug-20 12:34N 51°14' E 002°56'0 0.0
2015-Aug-20 11:31N 51°14' E 002°56'0 0.0
2015-Aug-20 10:31N 51°14' E 002°56'0 0.0
2015-Aug-20 09:28N 51°14' E 002°56'0 0.0
2015-Aug-20 08:32N 51°14' E 002°56'  
Track history (hours):
 
Tides and Currents Weather Stations Pressure Air Temp Water Temp Dewpoint Dewpoint Depression Visibility Wind Speed Wind Dir Waves Ship Positions

Mpi Rosinante

Last reported at 2015-Aug-24 12:15 UTC. Time now 2015-Aug-31 02:36 UTC.
Position N 51°14' E 002°56'.

Length 15 m; draft 1.1 m.

Type: Ship. MMSI: 235074636.

Date/timePositionNaut miles runAvg speedWind from/ knotsBaromVisibWave heightAir tempDewpointWater temp
2015-Aug-24 12:15N 51°14' E 002°56'0 0.0
2015-Aug-24 11:33N 51°14' E 002°56'0 0.0
2015-Aug-24 10:33N 51°14' E 002°56'0 0.3
2015-Aug-24 09:33N 51°14' E 002°56'3 2.9
2015-Aug-24 08:34N 51°17' E 002°55'1 0.8
2015-Aug-24 07:33N 51°16' E 002°55'3 0.1
2015-Aug-23 07:12N 51°14' E 002°56'0 0.0
2015-Aug-22 16:33N 51°14' E 002°56'20 2.5
2015-Aug-22 08:19N 51°34' E 003°01'4 5.1
2015-Aug-22 07:32N 51°33' E 002°55'1313.1
2015-Aug-22 06:34N 51°20' E 002°54'6 6.5
2015-Aug-22 05:33N 51°14' E 002°56'0 0.0
2015-Aug-20 15:25N 51°14' E 002°56'0 0.0
2015-Aug-20 14:34N 51°14' E 002°56'0 0.0
2015-Aug-20 13:34N 51°14' E 002°56'0 0.0
2015-Aug-20 12:34N 51°14' E 002°56'0 0.0
2015-Aug-20 11:31N 51°14' E 002°56'0 0.0
2015-Aug-20 10:31N 51°14' E 002°56'0 0.0
2015-Aug-20 09:28N 51°14' E 002°56'0 0.0
2015-Aug-20 08:32N 51°14' E 002°56'  

Dump ship's entire track history